Time;durP1;ratioP1;P1;durP2;ratioP2;P2;SDS_P1;SDS_P2;PMS_P1;PMS_P2;Temp;Humidity;BMP_temperature;BMP_pressure;BME280_temperature;BME280_humidity;BME280_pressure;Samples;Min_cycle;Max_cycle;Signal;HPM_P1;HPM_P2
2023/08/15 00:02:08;;;;;;;5.82;5.22;;;23.50;99.90;;;;;;5032619;28;20222;-60
2023/08/15 00:04:36;;;;;;;6.43;5.18;;;23.50;99.90;;;;;;5033028;28;20233;-60
2023/08/15 00:07:04;;;;;;;8.73;5.25;;;23.50;99.90;;;;;;5031647;28;20238;-60
2023/08/15 00:09:31;;;;;;;5.97;5.18;;;23.40;99.90;;;;;;5032810;28;20218;-60
2023/08/15 00:11:58;;;;;;;6.10;4.80;;;23.40;99.90;;;;;;5032620;28;20234;-61
2023/08/15 00:14:24;;;;;;;7.75;5.25;;;23.30;99.90;;;;;;5032388;28;20222;-61
2023/08/15 00:16:53;;;;;;;7.40;5.53;;;23.30;99.90;;;;;;5032191;28;20242;-57
2023/08/15 00:19:19;;;;;;;6.30;5.13;;;23.30;99.90;;;;;;5032661;28;20210;-58
2023/08/15 00:21:46;;;;;;;5.95;5.00;;;23.20;99.90;;;;;;5032451;28;20226;-60
2023/08/15 00:24:13;;;;;;;7.78;5.22;;;23.20;99.90;;;;;;5032304;28;20647;-59
2023/08/15 00:26:40;;;;;;;9.63;4.93;;;23.20;99.90;;;;;;5031961;28;20233;-59
2023/08/15 00:29:06;;;;;;;6.35;5.00;;;23.10;99.90;;;;;;5032031;28;20209;-60
2023/08/15 00:31:33;;;;;;;6.43;4.80;;;23.00;99.90;;;;;;5032484;28;20230;-59
2023/08/15 00:34:01;;;;;;;5.93;5.32;;;22.90;99.90;;;;;;5032381;28;20240;-59
2023/08/15 00:36:28;;;;;;;9.32;5.28;;;22.90;99.90;;;;;;5032055;28;20209;-58
2023/08/15 00:38:54;;;;;;;6.05;4.88;;;22.90;99.90;;;;;;5032324;28;20232;-59
2023/08/15 00:41:21;;;;;;;7.30;5.68;;;22.90;99.90;;;;;;5031787;28;20238;-59
2023/08/15 00:43:48;;;;;;;6.15;5.55;;;22.90;99.90;;;;;;5031944;28;20212;-58
2023/08/15 00:46:15;;;;;;;6.45;5.20;;;22.90;99.90;;;;;;5031740;28;20207;-59
2023/08/15 00:48:42;;;;;;;5.78;5.25;;;23.00;99.90;;;;;;5032172;28;20217;-59
2023/08/15 00:51:10;;;;;;;6.30;5.25;;;23.00;99.90;;;;;;5031930;28;20222;-59
2023/08/15 00:53:37;;;;;;;10.13;5.55;;;23.00;99.90;;;;;;5031819;28;20230;-58
2023/08/15 00:56:05;;;;;;;8.00;5.00;;;23.00;99.90;;;;;;5031351;28;20686;-59
2023/08/15 00:58:31;;;;;;;5.90;5.30;;;23.00;99.90;;;;;;5032092;28;20214;-59
2023/08/15 01:00:59;;;;;;;6.18;5.53;;;23.00;99.90;;;;;;5031718;28;20253;-58
2023/08/15 01:03:26;;;;;;;6.68;5.35;;;23.00;99.90;;;;;;5031615;28;20726;-59
2023/08/15 01:05:54;;;;;;;6.68;5.40;;;23.00;99.90;;;;;;5031531;28;20246;-59
2023/08/15 01:08:22;;;;;;;5.75;5.15;;;23.00;99.90;;;;;;5031521;28;20214;-58
2023/08/15 01:10:49;;;;;;;8.80;5.60;;;23.00;99.90;;;;;;5031351;28;20230;-58
2023/08/15 01:13:22;;;;;;;7.70;5.15;;;23.00;99.90;;;;;;5031315;28;20206;-59
2023/08/15 01:15:51;;;;;;;7.47;5.68;;;23.00;99.90;;;;;;5031437;28;20206;-59
2023/08/15 01:18:25;;;;;;;8.40;5.75;;;23.00;99.90;;;;;;5031139;28;20291;-60
2023/08/15 01:20:53;;;;;;;6.57;5.65;;;22.90;99.90;;;;;;5031261;28;20226;-59
2023/08/15 01:23:25;;;;;;;8.77;6.10;;;22.90;99.90;;;;;;5031295;28;20214;-59
2023/08/15 01:25:55;;;;;;;6.55;5.80;;;22.90;99.90;;;;;;5031001;28;20213;-59
2023/08/15 01:28:22;;;;;;;9.07;5.53;;;22.90;99.90;;;;;;5031581;28;20216;-59
2023/08/15 01:30:55;;;;;;;6.60;5.43;;;22.80;99.90;;;;;;5031260;28;20230;-59
2023/08/15 01:33:26;;;;;;;7.60;5.57;;;22.60;99.90;;;;;;5031155;28;20217;-58
2023/08/15 01:36:02;;;;;;;9.18;5.55;;;22.50;99.90;;;;;;5030815;28;20708;-58
2023/08/15 01:38:37;;;;;;;5.72;5.10;;;22.40;99.90;;;;;;5031375;28;20213;-59
2023/08/15 01:41:08;;;;;;;6.00;5.25;;;22.30;99.90;;;;;;5031701;28;20278;-56
2023/08/15 01:43:37;;;;;;;7.63;5.40;;;22.30;99.90;;;;;;5031239;28;20202;-55
2023/08/15 01:46:05;;;;;;;6.00;5.35;;;22.40;99.90;;;;;;5030709;28;20668;-56
2023/08/15 01:48:32;;;;;;;9.52;5.50;;;22.50;99.90;;;;;;5031035;28;20288;-55
2023/08/15 01:50:59;;;;;;;8.73;5.63;;;22.40;99.90;;;;;;5031347;28;20222;-56
2023/08/15 01:53:25;;;;;;;6.13;5.53;;;22.30;99.90;;;;;;5031283;28;20206;-55
2023/08/15 01:55:53;;;;;;;8.75;5.70;;;22.30;99.90;;;;;;5030821;28;20217;-56
2023/08/15 01:58:21;;;;;;;6.60;5.45;;;22.20;99.90;;;;;;5031198;28;20232;-55
2023/08/15 02:00:48;;;;;;;6.60;5.88;;;22.20;99.90;;;;;;5031340;28;20237;-57
2023/08/15 02:03:14;;;;;;;9.63;6.13;;;22.20;99.90;;;;;;5031393;28;20225;-55
2023/08/15 02:05:41;;;;;;;9.57;5.82;;;22.20;99.90;;;;;;5031076;28;20201;-56
2023/08/15 02:08:08;;;;;;;6.53;5.93;;;22.20;99.90;;;;;;5031003;28;20209;-55
2023/08/15 02:10:35;;;;;;;8.50;5.40;;;22.20;99.90;;;;;;5030858;28;20226;-55
2023/08/15 02:13:01;;;;;;;7.25;5.50;;;22.30;99.90;;;;;;5030817;28;20217;-55
2023/08/15 02:15:29;;;;;;;7.30;5.70;;;22.40;99.90;;;;;;5030729;28;20237;-55
2023/08/15 02:17:56;;;;;;;6.25;5.65;;;22.30;99.90;;;;;;5030940;28;20206;-55
2023/08/15 02:20:23;;;;;;;6.38;5.53;;;22.30;99.90;;;;;;5031024;28;20213;-56
2023/08/15 02:22:49;;;;;;;6.07;5.55;;;22.20;99.90;;;;;;5031084;28;20213;-55
2023/08/15 02:25:16;;;;;;;6.50;5.50;;;22.10;99.90;;;;;;5030920;28;20285;-55
2023/08/15 02:27:43;;;;;;;9.32;5.70;;;22.10;99.90;;;;;;5030615;28;20213;-57
2023/08/15 02:30:10;;;;;;;5.97;5.40;;;22.00;99.90;;;;;;5031653;28;20202;-55
2023/08/15 02:32:38;;;;;;;6.53;5.47;;;22.00;99.90;;;;;;5034643;28;20614;-57
2023/08/15 02:35:06;;;;;;;6.78;5.57;;;22.10;99.90;;;;;;5034383;28;20230;-56
2023/08/15 02:37:34;;;;;;;6.07;5.40;;;22.20;99.90;;;;;;5034094;28;20210;-59
2023/08/15 02:40:01;;;;;;;6.13;5.63;;;22.20;99.90;;;;;;5034367;28;20210;-55
2023/08/15 02:42:27;;;;;;;6.22;5.63;;;22.30;99.90;;;;;;5033962;28;20780;-56
2023/08/15 02:44:55;;;;;;;5.90;5.07;;;22.30;99.90;;;;;;5034360;28;20725;-56
2023/08/15 02:47:22;;;;;;;9.23;5.50;;;22.40;99.90;;;;;;5034071;28;20301;-56
2023/08/15 02:49:50;;;;;;;7.95;5.55;;;22.50;99.90;;;;;;5034280;28;20210;-56
2023/08/15 02:52:16;;;;;;;6.78;5.47;;;22.50;99.90;;;;;;5034107;28;20251;-56
2023/08/15 02:54:43;;;;;;;7.30;5.88;;;22.50;99.90;;;;;;5033977;28;20226;-55
2023/08/15 02:57:10;;;;;;;9.48;5.35;;;22.50;99.90;;;;;;5033729;28;20202;-55
2023/08/15 02:59:37;;;;;;;9.20;5.57;;;22.50;99.90;;;;;;5034206;28;20233;-55
2023/08/15 03:02:04;;;;;;;9.98;5.93;;;22.40;99.90;;;;;;5034137;28;20222;-57
2023/08/15 03:04:31;;;;;;;10.63;5.60;;;22.40;99.90;;;;;;5033880;28;20662;-55
2023/08/15 03:06:58;;;;;;;7.13;5.38;;;22.30;99.90;;;;;;5033595;28;20615;-55
2023/08/15 03:09:25;;;;;;;7.50;5.20;;;22.30;99.90;;;;;;5033680;28;20712;-55
2023/08/15 03:11:52;;;;;;;5.78;5.18;;;22.30;99.90;;;;;;5033588;28;20238;-56
2023/08/15 03:14:18;;;;;;;8.90;5.20;;;22.40;99.90;;;;;;5033788;28;20237;-55
2023/08/15 03:16:45;;;;;;;6.25;5.03;;;22.40;99.90;;;;;;5033584;28;20217;-55
2023/08/15 03:19:12;;;;;;;6.97;5.68;;;22.50;99.90;;;;;;5033760;28;20214;-58
2023/08/15 03:21:39;;;;;;;8.23;5.57;;;22.50;99.90;;;;;;5033533;28;20226;-56
2023/08/15 03:24:08;;;;;;;6.40;5.80;;;22.50;99.90;;;;;;5033965;28;20235;-55
2023/08/15 03:26:35;;;;;;;9.85;5.70;;;22.40;99.90;;;;;;5033060;28;20620;-55
2023/08/15 03:29:02;;;;;;;6.30;5.50;;;22.40;99.90;;;;;;5033444;28;20709;-58
2023/08/15 03:31:29;;;;;;;5.97;5.47;;;22.30;99.90;;;;;;5033583;28;20230;-56
2023/08/15 03:33:56;;;;;;;6.47;5.82;;;22.30;99.90;;;;;;5033452;28;20214;-55
2023/08/15 03:36:22;;;;;;;8.07;5.97;;;22.30;99.90;;;;;;5033082;28;20206;-58
2023/08/15 03:38:49;;;;;;;7.60;6.38;;;22.30;99.90;;;;;;5033145;28;20214;-55
2023/08/15 03:41:17;;;;;;;7.15;5.70;;;22.30;99.90;;;;;;5032903;28;20284;-55
2023/08/15 03:43:44;;;;;;;6.85;5.50;;;22.30;99.90;;;;;;5033231;28;20206;-55
2023/08/15 03:46:10;;;;;;;8.77;6.13;;;22.30;99.90;;;;;;5032896;28;20202;-56
2023/08/15 03:48:37;;;;;;;6.55;5.95;;;22.30;99.90;;;;;;5033095;28;20670;-56
2023/08/15 03:51:04;;;;;;;8.45;5.70;;;22.30;99.90;;;;;;5033107;28;20233;-56
2023/08/15 03:53:31;;;;;;;6.18;5.57;;;22.30;99.90;;;;;;5032897;28;20210;-56
2023/08/15 03:55:58;;;;;;;7.55;6.05;;;22.30;99.90;;;;;;5032960;28;20237;-56
2023/08/15 03:58:26;;;;;;;8.30;5.75;;;22.30;99.90;;;;;;5033075;28;20217;-57
2023/08/15 04:00:53;;;;;;;6.63;6.03;;;22.30;99.90;;;;;;5032776;28;20616;-56
2023/08/15 04:03:20;;;;;;;6.40;5.80;;;22.30;99.90;;;;;;5033002;28;20210;-56
2023/08/15 04:05:47;;;;;;;7.15;5.72;;;22.30;99.90;;;;;;5032380;28;20202;-55
2023/08/15 04:08:15;;;;;;;6.68;6.07;;;22.30;99.90;;;;;;5032798;28;20301;-56
2023/08/15 04:10:44;;;;;;;7.05;6.20;;;22.20;99.90;;;;;;5032420;28;20232;-55
2023/08/15 04:13:12;;;;;;;8.18;6.07;;;22.20;99.90;;;;;;5032645;28;20206;-55
2023/08/15 04:15:40;;;;;;;7.43;6.40;;;22.20;99.90;;;;;;5032484;28;20716;-56
2023/08/15 04:18:10;;;;;;;8.23;6.18;;;22.20;99.90;;;;;;5032572;28;20233;-55
2023/08/15 04:20:37;;;;;;;6.22;5.57;;;22.20;99.90;;;;;;5032339;28;20229;-57
2023/08/15 04:23:05;;;;;;;6.38;5.45;;;22.10;99.90;;;;;;5032609;28;20234;-58
2023/08/15 04:25:32;;;;;;;7.30;5.28;;;22.10;99.90;;;;;;5032328;28;20245;-55
2023/08/15 04:27:59;;;;;;;6.63;5.97;;;22.10;99.90;;;;;;5032276;28;20263;-55
2023/08/15 04:30:26;;;;;;;6.45;5.85;;;22.10;99.90;;;;;;5032221;28;20217;-58
2023/08/15 04:32:54;;;;;;;10.45;6.00;;;22.10;99.90;;;;;;5032330;28;20705;-56
2023/08/15 04:35:20;;;;;;;6.13;5.45;;;22.10;99.90;;;;;;5032349;28;20722;-56
2023/08/15 04:37:47;;;;;;;6.80;5.60;;;22.10;99.90;;;;;;5031718;28;20743;-56
2023/08/15 04:40:14;;;;;;;8.35;6.20;;;22.20;99.90;;;;;;5031941;28;20440;-55
2023/08/15 04:42:41;;;;;;;7.72;5.88;;;22.20;99.90;;;;;;5032211;28;20701;-56
2023/08/15 04:45:09;;;;;;;7.70;6.00;;;22.30;99.90;;;;;;5032033;28;20202;-55
2023/08/15 04:47:36;;;;;;;8.32;6.57;;;22.30;99.90;;;;;;5031701;28;20218;-55
2023/08/15 04:50:04;;;;;;;9.88;5.80;;;22.40;99.90;;;;;;5032374;28;20582;-57
2023/08/15 04:52:31;;;;;;;9.57;5.55;;;22.50;99.90;;;;;;5031515;28;20689;-55
2023/08/15 04:54:57;;;;;;;7.38;6.30;;;22.50;99.90;;;;;;5032020;28;20631;-56
2023/08/15 04:57:24;;;;;;;7.38;6.68;;;22.50;99.90;;;;;;5031652;28;20586;-55
2023/08/15 04:59:51;;;;;;;6.68;5.70;;;22.50;99.90;;;;;;5031705;28;20552;-56
2023/08/15 05:02:17;;;;;;;6.10;5.45;;;22.50;99.90;;;;;;5031712;28;20307;-56
2023/08/15 05:04:44;;;;;;;6.93;5.43;;;22.60;99.90;;;;;;5032103;28;20198;-55
2023/08/15 05:07:12;;;;;;;8.90;5.32;;;22.70;99.90;;;;;;5031507;28;20297;-57
2023/08/15 05:09:40;;;;;;;9.52;5.68;;;22.70;99.90;;;;;;5031836;28;20218;-56
2023/08/15 05:12:07;;;;;;;10.05;5.93;;;22.80;99.90;;;;;;5031973;28;20234;-55
2023/08/15 05:14:34;;;;;;;8.70;5.50;;;22.70;99.90;;;;;;5031682;28;20213;-56
2023/08/15 05:17:00;;;;;;;8.40;5.97;;;22.80;99.90;;;;;;5031651;28;20206;-55
2023/08/15 05:19:27;;;;;;;6.15;5.53;;;22.80;99.90;;;;;;5031717;28;20203;-58
2023/08/15 05:21:55;;;;;;;8.95;6.25;;;22.80;99.90;;;;;;5031540;28;20230;-55
2023/08/15 05:24:25;;;;;;;12.38;6.43;;;22.90;99.90;;;;;;5032051;28;20313;-55
2023/08/15 05:26:51;;;;;;;6.28;5.50;;;23.00;99.90;;;;;;5031268;28;20202;-58
2023/08/15 05:29:18;;;;;;;7.05;5.07;;;23.10;99.90;;;;;;5031331;28;20217;-54
2023/08/15 05:31:45;;;;;;;7.60;5.13;;;23.10;99.90;;;;;;5031692;28;20284;-55
2023/08/15 05:34:11;;;;;;;8.20;5.10;;;23.00;99.90;;;;;;5031558;28;20215;-57
2023/08/15 05:36:38;;;;;;;7.20;5.60;;;23.10;99.90;;;;;;5030870;28;20265;-54
2023/08/15 05:39:05;;;;;;;6.55;5.70;;;23.30;99.90;;;;;;5031457;28;20202;-54
2023/08/15 05:41:33;;;;;;;6.72;5.07;;;23.60;99.90;;;;;;5031238;28;20253;-56
2023/08/15 05:44:00;;;;;;;7.47;4.55;;;24.00;99.90;;;;;;5031696;28;20284;-56
2023/08/15 05:46:27;;;;;;;5.20;4.40;;;24.80;99.90;;;;;;5031425;28;20199;-57
2023/08/15 05:48:53;;;;;;;9.45;4.45;;;25.80;99.90;;;;;;5031488;28;20206;-56
2023/08/15 05:51:20;;;;;;;7.45;3.83;;;27.00;99.90;;;;;;5031402;28;20245;-58
2023/08/15 05:53:47;;;;;;;4.28;3.80;;;28.40;99.90;;;;;;5031215;28;20579;-57
2023/08/15 05:56:13;;;;;;;5.82;3.70;;;29.60;99.90;;;;;;5030684;28;20237;-56
2023/08/15 05:58:41;;;;;;;6.28;3.50;;;30.80;99.90;;;;;;5031241;28;20267;-58
2023/08/15 06:01:08;;;;;;;6.57;4.18;;;32.00;99.90;;;;;;5031406;28;20230;-56
2023/08/15 06:03:35;;;;;;;8.45;3.70;;;32.90;99.90;;;;;;5031422;28;20224;-56
2023/08/15 06:06:02;;;;;;;3.80;3.50;;;33.50;99.90;;;;;;5034780;28;20253;-56
2023/08/15 06:08:28;;;;;;;6.20;4.43;;;33.90;99.90;;;;;;5034785;28;20301;-59
2023/08/15 06:10:55;;;;;;;5.15;3.53;;;33.50;99.90;;;;;;5034494;28;20229;-57
2023/08/15 06:13:22;;;;;;;5.05;3.90;;;32.60;99.90;;;;;;5035035;28;20210;-56
2023/08/15 06:15:51;;;;;;;4.72;3.65;;;31.70;99.90;;;;;;5034583;28;20325;-57
2023/08/15 06:18:18;;;;;;;5.32;3.90;;;31.20;99.90;;;;;;5034429;28;20678;-56
2023/08/15 06:20:45;;;;;;;6.68;4.28;;;30.60;99.90;;;;;;5034537;28;20574;-59
2023/08/15 06:23:11;;;;;;;5.93;4.22;;;29.90;99.90;;;;;;5034496;28;20682;-56
2023/08/15 06:25:40;;;;;;;6.00;3.72;;;29.50;99.90;;;;;;5034363;28;20245;-57
2023/08/15 06:28:07;;;;;;;5.80;3.90;;;29.10;99.90;;;;;;5034681;28;20297;-55
2023/08/15 06:30:33;;;;;;;4.50;4.10;;;28.60;99.90;;;;;;5034379;28;20229;-57
2023/08/15 06:33:01;;;;;;;6.30;4.40;;;28.20;99.90;;;;;;5034451;28;20589;-56
2023/08/15 06:35:28;;;;;;;6.05;4.18;;;27.70;99.90;;;;;;5034297;28;20222;-55
2023/08/15 06:37:55;;;;;;;8.88;4.22;;;27.40;99.90;;;;;;5034472;28;20241;-55
2023/08/15 06:40:22;;;;;;;6.75;4.30;;;27.80;99.90;;;;;;5034245;28;20202;-56
2023/08/15 06:42:48;;;;;;;6.45;4.47;;;28.10;99.90;;;;;;5034362;28;20260;-55
2023/08/15 06:45:16;;;;;;;7.75;4.90;;;28.20;99.90;;;;;;5034457;28;20206;-56
2023/08/15 06:47:43;;;;;;;6.03;4.10;;;28.40;99.90;;;;;;5033907;28;20202;-56
2023/08/15 06:50:10;;;;;;;4.60;4.07;;;28.50;99.90;;;;;;5034055;28;20206;-58
2023/08/15 06:52:37;;;;;;;5.72;4.22;;;29.20;99.90;;;;;;5034187;28;20230;-56
2023/08/15 06:55:05;;;;;;;5.75;4.53;;;29.90;99.90;;;;;;5034244;28;20217;-57
2023/08/15 06:57:32;;;;;;;5.28;4.57;;;29.90;99.90;;;;;;5033589;28;20667;-57
2023/08/15 06:59:59;;;;;;;5.93;4.53;;;29.80;99.90;;;;;;5034208;28;20205;-55
2023/08/15 07:02:25;;;;;;;4.28;3.47;;;30.00;99.90;;;;;;5033683;28;20698;-56
2023/08/15 07:04:52;;;;;;;8.60;4.70;;;30.10;99.90;;;;;;5033951;28;20206;-57
2023/08/15 07:07:20;;;;;;;5.05;3.92;;;29.70;99.90;;;;;;5033520;28;20206;-56
2023/08/15 07:09:47;;;;;;;4.53;4.10;;;29.40;99.90;;;;;;5033986;28;20210;-56
2023/08/15 07:12:17;;;;;;;8.32;4.35;;;28.90;99.90;;;;;;5033534;28;20584;-56
2023/08/15 07:14:44;;;;;;;7.07;4.28;;;28.70;99.90;;;;;;5033927;28;20271;-58
2023/08/15 07:17:11;;;;;;;7.53;4.53;;;28.80;99.90;;;;;;5032889;28;20706;-56
2023/08/15 07:19:38;;;;;;;4.80;4.30;;;28.90;99.90;;;;;;5033653;28;20616;-56
2023/08/15 07:22:05;;;;;;;4.32;3.92;;;29.60;99.90;;;;;;5033609;28;20713;-56
2023/08/15 07:24:33;;;;;;;6.93;4.38;;;30.80;99.90;;;;;;5033648;28;20674;-56
2023/08/15 07:27:00;;;;;;;6.30;4.80;;;31.00;99.90;;;;;;5033446;28;20209;-56
2023/08/15 07:29:27;;;;;;;4.93;4.43;;;30.80;99.90;;;;;;5033601;28;20210;-57
2023/08/15 07:31:53;;;;;;;9.48;4.72;;;30.30;99.90;;;;;;5033439;28;20230;-55
2023/08/15 07:34:20;;;;;;;5.25;4.75;;;29.90;99.90;;;;;;5033386;28;20206;-56
2023/08/15 07:36:47;;;;;;;6.75;4.45;;;29.80;99.90;;;;;;5033316;28;20237;-57
2023/08/15 07:39:14;;;;;;;5.57;5.05;;;29.80;99.90;;;;;;5033403;28;20238;-55
2023/08/15 07:41:42;;;;;;;7.97;5.18;;;29.70;99.90;;;;;;5033492;28;20238;-57
2023/08/15 07:44:09;;;;;;;7.93;5.60;;;29.60;99.90;;;;;;5033187;28;20297;-57
2023/08/15 07:46:35;;;;;;;3.65;3.35;;;29.80;99.90;;;;;;5032718;28;20202;-58
2023/08/15 07:49:02;;;;;;;4.97;3.78;;;29.90;99.90;;;;;;5033054;28;20304;-58
2023/08/15 07:51:29;;;;;;;5.75;4.05;;;30.10;99.90;;;;;;5033268;28;20237;-58
2023/08/15 07:53:55;;;;;;;5.80;4.00;;;30.40;99.90;;;;;;5032800;28;20207;-58
2023/08/15 07:56:22;;;;;;;7.97;5.07;;;31.00;99.90;;;;;;5032654;28;20260;-59
2023/08/15 07:58:51;;;;;;;6.20;4.18;;;31.30;99.90;;;;;;5032475;28;20582;-58
2023/08/15 08:01:17;;;;;;;6.57;5.07;;;30.80;99.90;;;;;;5032575;28;20320;-59
2023/08/15 08:03:44;;;;;;;6.80;4.78;;;30.70;99.90;;;;;;5033038;28;20260;-59
2023/08/15 08:06:11;;;;;;;5.90;4.90;;;30.80;99.90;;;;;;5032627;28;20205;-57
2023/08/15 08:08:37;;;;;;;8.38;4.78;;;30.90;99.90;;;;;;5032714;28;20221;-58
2023/08/15 08:11:04;;;;;;;8.48;4.55;;;30.90;99.90;;;;;;5032568;28;20227;-58
2023/08/15 08:13:31;;;;;;;7.47;4.50;;;30.80;99.90;;;;;;5032707;28;20206;-58
2023/08/15 08:15:59;;;;;;;8.85;4.80;;;30.60;99.90;;;;;;5032094;28;20225;-58
2023/08/15 08:18:26;;;;;;;6.82;4.82;;;30.50;99.90;;;;;;5032600;28;20627;-57
2023/08/15 08:20:53;;;;;;;5.03;4.50;;;30.30;99.90;;;;;;5032396;28;20226;-60
2023/08/15 08:23:19;;;;;;;8.65;4.60;;;30.10;99.90;;;;;;5032627;28;20370;-59
2023/08/15 08:25:46;;;;;;;8.25;4.78;;;30.10;99.90;;;;;;5032110;28;20236;-59
2023/08/15 08:28:13;;;;;;;5.65;4.75;;;30.20;99.90;;;;;;5031193;28;20221;-58
2023/08/15 08:30:42;;;;;;;7.93;4.43;;;30.30;99.90;;;;;;5032308;28;20226;-57
2023/08/15 08:33:12;;;;;;;6.65;4.45;;;30.40;99.90;;;;;;5032319;28;20221;-57
2023/08/15 08:35:39;;;;;;;6.45;4.40;;;30.50;99.90;;;;;;5032494;28;20216;-56
2023/08/15 08:38:06;;;;;;;9.80;4.63;;;30.60;99.90;;;;;;5032264;28;20525;-57
2023/08/15 08:40:33;;;;;;;5.82;4.28;;;30.60;99.90;;;;;;5031979;28;20337;-57
2023/08/15 08:43:00;;;;;;;8.05;5.30;;;30.90;99.90;;;;;;5032159;28;20297;-57
2023/08/15 08:45:30;;;;;;;5.90;4.47;;;31.00;99.90;;;;;;5032141;28;20317;-58
2023/08/15 08:47:57;;;;;;;4.82;4.30;;;31.20;99.90;;;;;;5031795;28;20705;-57
2023/08/15 08:50:27;;;;;;;4.57;3.83;;;31.50;99.90;;;;;;5032064;28;20209;-57
2023/08/15 08:52:54;;;;;;;10.00;4.30;;;31.70;99.90;;;;;;5031962;28;20638;-57
2023/08/15 08:55:21;;;;;;;5.18;3.97;;;31.70;99.90;;;;;;5031913;28;20210;-58
2023/08/15 08:57:52;;;;;;;4.85;4.05;;;31.70;99.90;;;;;;5031415;28;20300;-57
2023/08/15 09:00:22;;;;;;;8.95;5.00;;;31.50;99.90;;;;;;5032003;28;20202;-59
2023/08/15 09:02:50;;;;;;;4.95;4.35;;;31.50;99.90;;;;;;5027923;28;20216;-58
2023/08/15 09:05:17;;;;;;;6.05;3.88;;;31.60;99.90;;;;;;5030970;28;20210;-61
2023/08/15 09:07:45;;;;;;;7.88;4.50;;;31.70;99.90;;;;;;5030589;28;20205;-61
2023/08/15 09:10:12;;;;;;;6.75;3.90;;;31.90;99.90;;;;;;5030493;28;20210;-61
2023/08/15 09:12:40;;;;;;;4.47;4.07;;;32.10;99.90;;;;;;5029867;28;20353;-61
2023/08/15 09:15:08;;;;;;;4.88;4.38;;;32.10;99.90;;;;;;5011247;28;20207;-62
2023/08/15 09:17:35;;;;;;;9.63;4.00;;;32.20;99.90;;;;;;5010659;28;20246;-62
2023/08/15 09:20:10;;;;;;;6.90;4.45;;;32.40;99.90;;;;;;5010591;28;20229;-63
2023/08/15 09:22:39;;;;;;;4.68;4.05;;;32.60;99.90;;;;;;5010775;28;20241;-62
2023/08/15 09:25:07;;;;;;;7.35;4.30;;;32.80;99.90;;;;;;5010951;28;20214;-62
2023/08/15 09:27:34;;;;;;;8.20;5.82;;;33.20;99.90;;;;;;5010604;28;20626;-63
2023/08/15 09:30:11;;;;;;;8.27;4.43;;;33.60;99.90;;;;;;5010810;28;20265;-59
2023/08/15 09:32:40;;;;;;;7.60;4.30;;;34.00;99.90;;;;;;5010962;28;20750;-60
2023/08/15 09:35:10;;;;;;;5.82;3.72;;;34.10;99.90;;;;;;5010581;28;20207;-60
2023/08/15 09:37:41;;;;;;;5.05;3.83;;;34.20;99.90;;;;;;5010436;28;20234;-61
2023/08/15 09:40:12;;;;;;;9.43;6.38;;;34.20;99.90;;;;;;5010431;28;20213;-61
2023/08/15 09:42:39;;;;;;;8.15;5.32;;;34.30;99.90;;;;;;5010637;28;20203;-61
2023/08/15 09:45:09;;;;;;;4.60;4.03;;;34.20;99.90;;;;;;5010722;28;20289;-60
2023/08/15 09:47:37;;;;;;;5.60;3.92;;;34.10;99.90;;;;;;5010451;28;20621;-62
2023/08/15 09:50:06;;;;;;;4.72;3.95;;;34.00;99.90;;;;;;5010806;28;20222;-62
2023/08/15 09:52:34;;;;;;;5.85;3.85;;;33.80;99.90;;;;;;5010424;28;20217;-59
2023/08/15 09:55:00;;;;;;;4.57;3.67;;;33.70;99.90;;;;;;5010565;28;20207;-59
2023/08/15 09:57:28;;;;;;;7.70;3.95;;;33.50;99.90;;;;;;5010445;28;20242;-59
2023/08/15 09:59:55;;;;;;;5.55;4.13;;;33.50;99.90;;;;;;5004186;28;20637;-63
2023/08/15 10:02:23;;;;;;;7.20;4.28;;;33.50;99.90;;;;;;5021846;28;20229;-60
2023/08/15 10:05:00;;;;;;;5.40;4.63;;;33.60;99.90;;;;;;5030255;28;20206;-61
2023/08/15 10:07:30;;;;;;;5.88;4.20;;;33.80;99.90;;;;;;5029873;28;20202;-60
2023/08/15 10:09:58;;;;;;;4.85;3.75;;;33.80;99.90;;;;;;5030056;28;20228;-60
2023/08/15 10:12:27;;;;;;;6.18;3.55;;;33.80;99.90;;;;;;5030068;28;20264;-59
2023/08/15 10:14:57;;;;;;;5.13;3.78;;;33.80;99.90;;;;;;5029850;28;20666;-59
2023/08/15 10:17:24;;;;;;;5.38;3.80;;;33.70;99.90;;;;;;5029646;28;20234;-59
2023/08/15 10:19:51;;;;;;;7.43;3.95;;;33.70;99.90;;;;;;5029958;28;20617;-59
2023/08/15 10:22:19;;;;;;;7.82;3.72;;;33.70;99.90;;;;;;5030031;28;20234;-59
2023/08/15 10:24:46;;;;;;;7.68;3.85;;;33.60;99.90;;;;;;5029800;28;20252;-59
2023/08/15 10:27:14;;;;;;;6.50;3.80;;;33.60;99.90;;;;;;5029584;28;20207;-59
2023/08/15 10:29:58;;;;;;;8.23;3.70;;;33.60;99.90;;;;;;5030227;28;20213;-59
2023/08/15 10:32:26;;;;;;;4.25;3.83;;;33.50;99.90;;;;;;5029991;28;20637;-59
2023/08/15 10:34:59;;;;;;;6.70;3.70;;;33.50;99.90;;;;;;5029951;28;20229;-59
2023/08/15 10:37:31;;;;;;;10.25;3.70;;;33.60;99.90;;;;;;5029602;28;20226;-59
2023/08/15 10:40:09;;;;;;;7.63;3.60;;;33.60;99.90;;;;;;5030094;28;20302;-61
2023/08/15 10:43:10;;;;;;;8.50;3.28;;;33.80;99.90;;;;;;5030047;28;20214;-63
2023/08/15 10:45:40;;;;;;;8.82;3.20;;;34.00;99.90;;;;;;5023158;28;20234;-62
2023/08/15 10:48:07;;;;;;;5.20;2.80;;;33.90;99.90;;;;;;5009182;28;20207;-63
2023/08/15 10:50:35;;;;;;;6.50;3.05;;;33.80;99.90;;;;;;5010192;28;20596;-66
2023/08/15 10:53:03;;;;;;;8.27;2.70;;;33.70;99.90;;;;;;5013739;28;20273;-62
2023/08/15 10:55:32;;;;;;;4.88;2.50;;;33.70;99.90;;;;;;5013218;28;20286;-62
2023/08/15 10:57:58;;;;;;;5.38;2.35;;;33.70;99.90;;;;;;5013136;28;20250;-65
2023/08/15 11:00:26;;;;;;;7.05;2.75;;;33.80;99.90;;;;;;5018361;28;20210;-64
2023/08/15 11:02:55;;;;;;;4.07;2.80;;;34.00;99.90;;;;;;5031377;28;20234;-62
2023/08/15 11:05:22;;;;;;;7.07;3.35;;;34.10;99.60;;;;;;5033215;28;20244;-62
2023/08/15 11:07:49;;;;;;;7.38;3.33;;;34.20;98.70;;;;;;5032883;28;20206;-61
2023/08/15 11:10:15;;;;;;;5.75;3.05;;;34.30;98.90;;;;;;5032865;28;20670;-60
2023/08/15 11:12:48;;;;;;;6.75;3.13;;;34.40;97.60;;;;;;5032797;28;20206;-60
2023/08/15 11:15:15;;;;;;;6.70;2.80;;;34.50;97.20;;;;;;4993667;28;20231;-63
2023/08/15 11:17:45;;;;;;;4.80;2.55;;;34.60;96.20;;;;;;4993527;28;20285;-62
2023/08/15 11:20:13;;;;;;;5.40;2.58;;;34.80;96.80;;;;;;4993705;28;20215;-63
2023/08/15 11:22:41;;;;;;;5.53;2.33;;;35.00;97.30;;;;;;4993364;28;20207;-63
2023/08/15 11:25:08;;;;;;;6.15;2.67;;;35.00;94.70;;;;;;4993475;28;20222;-62
2023/08/15 11:27:40;;;;;;;4.47;2.88;;;34.60;94.50;;;;;;4992785;28;20242;-62
2023/08/15 11:30:08;;;;;;;8.43;2.80;;;34.10;95.60;;;;;;4993601;28;20239;-63
2023/08/15 11:32:37;;;;;;;6.75;2.55;;;34.00;95.60;;;;;;4993612;28;20235;-62
2023/08/15 11:35:04;;;;;;;5.90;2.38;;;34.10;95.50;;;;;;4993496;28;20754;-62
2023/08/15 11:37:32;;;;;;;5.53;2.33;;;34.50;96.10;;;;;;4993722;28;20231;-63
2023/08/15 11:39:59;;;;;;;6.25;2.22;;;34.90;93.20;;;;;;4993493;28;20211;-62
2023/08/15 11:42:26;;;;;;;6.95;2.60;;;35.20;92.90;;;;;;4992963;28;20244;-61
2023/08/15 11:45:01;;;;;;;3.60;2.50;;;35.60;93.00;;;;;;5004057;28;20207;-63
2023/08/15 11:47:31;;;;;;;4.18;2.38;;;35.80;92.40;;;;;;5012427;28;20237;-62
2023/08/15 11:49:57;;;;;;;5.78;2.55;;;36.00;90.60;;;;;;5012765;28;20207;-61
2023/08/15 11:52:24;;;;;;;4.03;2.50;;;35.80;90.30;;;;;;5012679;28;20229;-63
2023/08/15 11:54:52;;;;;;;4.78;2.15;;;35.60;90.40;;;;;;5012507;28;20214;-63
2023/08/15 11:57:33;;;;;;;7.00;2.50;;;35.40;90.80;;;;;;5012299;28;20227;-64
2023/08/15 12:00:01;;;;;;;6.68;2.55;;;35.20;91.00;;;;;;5012373;28;20206;-64
2023/08/15 12:02:28;;;;;;;3.63;2.40;;;34.80;90.60;;;;;;5012050;28;20265;-63
2023/08/15 12:04:54;;;;;;;5.18;2.90;;;34.30;91.80;;;;;;5012380;28;20203;-65
2023/08/15 12:07:21;;;;;;;4.55;2.88;;;34.10;93.50;;;;;;5013118;28;20675;-64
2023/08/15 12:09:48;;;;;;;6.90;3.20;;;33.70;94.70;;;;;;5032199;28;20206;-62
2023/08/15 12:12:19;;;;;;;5.55;2.95;;;33.40;95.50;;;;;;5032109;28;20288;-62
2023/08/15 12:14:46;;;;;;;8.07;3.13;;;33.10;96.50;;;;;;5016305;28;20230;-61
2023/08/15 12:17:13;;;;;;;6.47;3.28;;;32.80;97.60;;;;;;5011741;28;20230;-62
2023/08/15 12:19:40;;;;;;;5.90;3.17;;;32.80;99.10;;;;;;5011756;28;20203;-62
2023/08/15 12:22:07;;;;;;;6.20;3.90;;;32.90;99.90;;;;;;5012183;28;20238;-64
2023/08/15 12:24:33;;;;;;;6.45;3.63;;;32.90;99.90;;;;;;5011782;28;20679;-64
2023/08/15 12:27:01;;;;;;;5.22;3.03;;;32.90;99.60;;;;;;5012775;28;20298;-62
2023/08/15 12:29:29;;;;;;;6.57;2.90;;;33.10;98.20;;;;;;5032665;28;20210;-59
2023/08/15 12:31:56;;;;;;;6.70;3.08;;;33.10;97.50;;;;;;5032411;28;20234;-59
2023/08/15 12:34:23;;;;;;;5.25;2.70;;;33.10;96.50;;;;;;5032242;28;20218;-58
2023/08/15 12:36:49;;;;;;;5.90;3.00;;;33.10;96.10;;;;;;5031994;28;20207;-59
2023/08/15 12:39:18;;;;;;;4.30;3.00;;;33.10;96.00;;;;;;5032263;28;20573;-59
2023/08/15 12:41:45;;;;;;;4.63;2.90;;;32.90;96.40;;;;;;5031837;28;20768;-58
2023/08/15 12:44:12;;;;;;;7.70;3.45;;;32.80;96.70;;;;;;5031983;28;20202;-57
2023/08/15 12:46:40;;;;;;;7.38;3.80;;;32.70;97.10;;;;;;5031891;28;20202;-58
2023/08/15 12:49:07;;;;;;;6.15;3.15;;;32.70;98.00;;;;;;5032048;28;20810;-58